Time;durP1;ratioP1;P1;durP2;ratioP2;P2;SDS_P1;SDS_P2;PMS_P1;PMS_P2;Temp;Humidity;BMP_temperature;BMP_pressure;BME280_temperature;BME280_humidity;BME280_pressure;Samples;Min_cycle;Max_cycle;Signal;HPM_P1;HPM_P2
2023/04/03 00:11:04;;;;;;;0.27;0.27;;;7.40;99.90;;;;;;5004006;28;20232;-44
2023/04/03 00:13:32;;;;;;;1.27;0.57;;;7.40;99.90;;;;;;5008457;28;20587;-44
2023/04/03 00:15:58;;;;;;;0.10;0.10;;;7.40;99.90;;;;;;5011296;28;20201;-44
2023/04/03 00:18:25;;;;;;;0.20;0.20;;;7.40;99.90;;;;;;5011394;28;20210;-44
2023/04/03 00:24:14;;;;;;;0.20;0.20;;;7.30;99.90;;;;;;5010044;28;20226;-45
2023/04/03 00:26:42;;;;;;;0.40;0.40;;;7.30;99.90;;;;;;5011452;28;20253;-45
2023/04/03 00:29:09;;;;;;;0.40;0.33;;;7.20;99.90;;;;;;5011267;28;20256;-44
2023/04/03 00:31:36;;;;;;;0.30;0.30;;;7.20;99.90;;;;;;5008177;28;20217;-45
2023/04/03 00:34:03;;;;;;;0.30;0.30;;;7.30;99.90;;;;;;5007698;28;20205;-44
2023/04/03 00:36:30;;;;;;;0.50;0.50;;;7.20;99.90;;;;;;5011267;28;20216;-45
2023/04/03 00:38:57;;;;;;;0.63;0.63;;;7.10;99.90;;;;;;5011242;28;20202;-44
2023/04/03 00:41:25;;;;;;;0.30;0.30;;;7.20;99.90;;;;;;5008937;28;20223;-44
2023/04/03 00:43:53;;;;;;;1.00;0.50;;;7.20;99.90;;;;;;5010320;28;20201;-45
2023/04/03 00:46:20;;;;;;;0.77;0.77;;;7.20;99.90;;;;;;5012261;28;20205;-45
2023/04/03 00:48:49;;;;;;;0.90;0.90;;;7.20;99.90;;;;;;5014151;28;20267;-45
2023/04/03 00:51:20;;;;;;;0.30;0.30;;;7.20;99.90;;;;;;5013241;28;20236;-44
2023/04/03 00:53:49;;;;;;;0.20;0.20;;;7.30;99.90;;;;;;5013955;28;20270;-45
2023/04/03 00:56:18;;;;;;;0.30;0.30;;;7.10;99.90;;;;;;5014267;28;20252;-44
2023/04/03 00:58:49;;;;;;;0.50;0.50;;;7.10;99.90;;;;;;5012510;28;20198;-44
2023/04/03 01:01:23;;;;;;;0.30;0.30;;;7.00;99.90;;;;;;5013247;28;20233;-44
2023/04/03 01:03:50;;;;;;;0.43;0.43;;;6.70;99.90;;;;;;5014349;28;20201;-44
2023/04/03 01:06:19;;;;;;;0.70;0.70;;;6.60;99.90;;;;;;5013444;28;20733;-44
2023/04/03 01:08:47;;;;;;;0.40;0.40;;;6.60;99.90;;;;;;5014074;28;20579;-44
2023/04/03 01:11:14;;;;;;;1.43;1.43;;;6.60;99.90;;;;;;5010700;28;20228;-44
2023/04/03 01:13:41;;;;;;;0.47;0.47;;;6.50;99.90;;;;;;5012301;28;20208;-44
2023/04/03 01:16:09;;;;;;;0.53;0.50;;;6.50;99.90;;;;;;5014168;28;20202;-44
2023/04/03 01:18:40;;;;;;;1.07;1.07;;;6.40;99.90;;;;;;5013929;28;20219;-44
2023/04/03 01:21:37;;;;;;;0.60;0.60;;;6.40;99.90;;;;;;5013203;28;20644;-44
2023/04/03 01:24:13;;;;;;;0.63;0.63;;;6.50;99.90;;;;;;5011894;28;20205;-45
2023/04/03 01:26:40;;;;;;;0.73;0.73;;;6.50;99.90;;;;;;5014034;28;20614;-45
2023/04/03 01:29:07;;;;;;;3.47;3.27;;;6.50;99.90;;;;;;5013712;28;20267;-45
2023/04/03 03:46:19;;;;;;;6.23;5.63;;;4.40;99.90;;;;;;5009375;28;20670;-45
2023/04/03 03:48:46;;;;;;;5.13;4.67;;;4.40;99.90;;;;;;5011091;28;20553;-45
2023/04/03 03:51:13;;;;;;;6.07;5.47;;;4.40;99.90;;;;;;5011217;28;20725;-45
2023/04/03 03:53:40;;;;;;;6.93;6.33;;;4.40;99.90;;;;;;5009526;28;20271;-45
2023/04/03 03:56:07;;;;;;;8.73;6.27;;;4.30;99.90;;;;;;5010503;28;20209;-44
2023/04/03 03:58:34;;;;;;;7.80;5.37;;;4.30;99.90;;;;;;5008752;28;20262;-45
2023/04/03 04:01:03;;;;;;;7.00;5.93;;;4.30;99.90;;;;;;5009426;28;20228;-45
2023/04/03 04:03:31;;;;;;;8.63;6.60;;;4.30;99.90;;;;;;5012173;28;20208;-45
2023/04/03 12:40:08;;;;;;;4.57;2.30;;;8.30;99.90;;;;;;5003326;28;20288;-48
2023/04/03 12:43:10;;;;;;;6.67;1.73;;;8.50;99.90;;;;;;5017051;28;20691;-48
2023/04/03 12:45:44;;;;;;;2.33;1.40;;;8.60;99.90;;;;;;5010908;28;20214;-48
2023/04/03 12:48:17;;;;;;;1.30;1.20;;;8.50;99.90;;;;;;5010735;28;20199;-48
2023/04/03 12:50:46;;;;;;;2.10;2.00;;;8.30;99.90;;;;;;5005707;28;20230;-47
2023/04/03 12:53:17;;;;;;;2.20;2.10;;;8.30;99.90;;;;;;5014250;28;20214;-47
2023/04/03 12:55:45;;;;;;;2.93;2.83;;;8.30;99.90;;;;;;5014698;28;20209;-47
2023/04/03 12:58:17;;;;;;;2.43;2.27;;;8.40;99.90;;;;;;5013849;28;20225;-47
2023/04/03 13:00:44;;;;;;;4.13;3.73;;;8.40;99.90;;;;;;5006705;28;20231;-47
2023/04/03 13:03:26;;;;;;;3.03;2.60;;;8.50;99.90;;;;;;5013776;28;20205;-47
2023/04/03 13:06:03;;;;;;;2.23;2.13;;;8.60;99.90;;;;;;5011736;28;20208;-47
2023/04/03 13:08:30;;;;;;;3.63;2.07;;;8.40;99.90;;;;;;5021578;28;20247;-46
2023/04/03 13:11:02;;;;;;;1.40;1.27;;;8.50;99.90;;;;;;5013589;28;20224;-47
2023/04/03 13:13:30;;;;;;;1.90;1.30;;;8.40;99.90;;;;;;5007860;28;20208;-46
2023/04/03 13:15:57;;;;;;;2.47;1.73;;;8.30;99.90;;;;;;5014273;28;20830;-47
2023/04/03 13:18:32;;;;;;;1.53;1.43;;;8.40;99.90;;;;;;5014281;28;20219;-47
2023/04/03 13:21:04;;;;;;;2.07;1.97;;;8.30;99.90;;;;;;5013334;28;20234;-47
2023/04/03 13:23:32;;;;;;;1.33;1.20;;;8.30;99.90;;;;;;5010066;28;20727;-47
2023/04/03 13:26:03;;;;;;;1.70;1.60;;;8.50;99.90;;;;;;5014602;28;20212;-47
2023/04/03 13:28:32;;;;;;;2.00;1.90;;;8.50;99.90;;;;;;5014425;28;20199;-47
2023/04/03 13:31:05;;;;;;;2.00;1.47;;;8.60;99.90;;;;;;5009036;28;20215;-47
2023/04/03 13:33:37;;;;;;;1.57;1.47;;;8.60;99.90;;;;;;5012705;28;20259;-47
2023/04/03 13:36:07;;;;;;;1.63;1.53;;;8.60;99.90;;;;;;5013770;28;20666;-46
2023/04/03 13:38:36;;;;;;;1.87;1.77;;;8.60;99.90;;;;;;5014196;28;20672;-47
2023/04/03 13:41:07;;;;;;;2.07;1.90;;;8.60;99.90;;;;;;5009812;28;20237;-47
2023/04/03 13:43:36;;;;;;;2.13;2.03;;;8.60;99.90;;;;;;5022002;28;20242;-47
2023/04/03 13:46:07;;;;;;;2.13;2.03;;;8.60;99.90;;;;;;5009710;28;20269;-47
2023/04/03 13:48:40;;;;;;;1.90;1.73;;;8.50;99.90;;;;;;5012916;28;20197;-47
2023/04/03 13:51:18;;;;;;;3.43;3.27;;;8.20;99.90;;;;;;5010483;28;20224;-47
2023/04/03 13:53:48;;;;;;;5.13;1.60;;;8.20;99.90;;;;;;5012475;28;20617;-47
2023/04/03 13:56:25;;;;;;;4.27;3.57;;;8.10;99.90;;;;;;5015650;28;20200;-46
2023/04/03 13:59:20;;;;;;;2.03;1.93;;;8.20;99.90;;;;;;5012158;28;20230;-46
2023/04/03 14:01:50;;;;;;;2.37;2.10;;;8.10;99.90;;;;;;5009289;28;20616;-48
2023/04/03 14:04:22;;;;;;;2.80;2.60;;;8.10;99.90;;;;;;5005491;28;20284;-47
2023/04/03 14:06:49;;;;;;;5.47;4.97;;;8.00;99.90;;;;;;5013456;28;20200;-48
2023/04/03 14:09:18;;;;;;;3.60;3.30;;;8.00;99.90;;;;;;5005847;28;20271;-47
2023/04/03 14:11:47;;;;;;;2.83;2.50;;;8.10;99.90;;;;;;5012321;28;20605;-48
2023/04/03 14:14:18;;;;;;;3.30;3.00;;;8.00;99.90;;;;;;5013495;28;20197;-48
2023/04/03 14:16:47;;;;;;;2.70;2.37;;;8.10;99.90;;;;;;5013109;28;20201;-48
2023/04/03 14:19:22;;;;;;;2.30;2.20;;;8.20;99.90;;;;;;5010554;28;20225;-47
2023/04/03 14:21:50;;;;;;;2.93;2.67;;;8.20;99.90;;;;;;5008575;28;20210;-49
2023/04/03 14:24:18;;;;;;;3.00;2.80;;;8.00;99.90;;;;;;5005186;28;20292;-48
2023/04/03 14:26:47;;;;;;;3.90;3.60;;;8.10;99.90;;;;;;5012858;28;20263;-48
2023/04/03 14:29:15;;;;;;;4.00;3.70;;;8.10;99.90;;;;;;5011482;28;20763;-47
2023/04/03 14:31:45;;;;;;;3.57;3.37;;;8.00;99.90;;;;;;5012010;28;20660;-47
2023/04/03 14:34:12;;;;;;;2.40;2.20;;;8.00;99.90;;;;;;5011721;28;20195;-47
2023/04/03 14:36:40;;;;;;;2.80;2.60;;;8.10;99.90;;;;;;5012753;28;20202;-48
2023/04/03 14:39:08;;;;;;;4.63;3.47;;;8.00;99.90;;;;;;5010352;28;20267;-48
2023/04/03 14:41:35;;;;;;;3.27;3.10;;;7.80;99.90;;;;;;5012934;28;20205;-48
2023/04/03 14:44:04;;;;;;;2.43;2.30;;;7.90;99.90;;;;;;5012796;28;20216;-47
2023/04/03 14:46:33;;;;;;;2.23;2.03;;;8.00;99.90;;;;;;5007151;28;20208;-47
2023/04/03 14:49:00;;;;;;;5.57;2.00;;;7.80;99.90;;;;;;5010630;28;20219;-47
2023/04/03 14:51:27;;;;;;;2.37;2.17;;;7.90;99.90;;;;;;5012606;28;20223;-48
2023/04/03 14:53:55;;;;;;;2.97;2.13;;;8.00;99.90;;;;;;5014301;28;20624;-47
2023/04/03 14:56:26;;;;;;;1.87;1.77;;;8.00;99.90;;;;;;5008195;28;20290;-48
2023/04/03 14:58:56;;;;;;;2.27;2.17;;;8.00;99.90;;;;;;5007357;28;20308;-47
2023/04/03 15:01:25;;;;;;;2.27;2.07;;;8.10;99.90;;;;;;5012536;28;20640;-47
2023/04/03 15:03:52;;;;;;;3.07;2.90;;;8.10;99.90;;;;;;5012573;28;20633;-47
2023/04/03 15:06:20;;;;;;;4.60;1.90;;;8.10;99.90;;;;;;5012332;28;20263;-47
2023/04/03 15:08:49;;;;;;;3.83;3.57;;;8.00;99.90;;;;;;5007912;28;20247;-47
2023/04/03 15:11:16;;;;;;;3.03;2.73;;;8.00;99.90;;;;;;5010553;28;20201;-48
2023/04/03 15:13:44;;;;;;;2.67;2.47;;;7.90;99.90;;;;;;5007817;28;20199;-49
2023/04/03 15:16:17;;;;;;;3.00;2.80;;;8.00;99.90;;;;;;5012158;28;20204;-47
2023/04/03 15:18:47;;;;;;;1.83;1.70;;;7.90;99.90;;;;;;5011129;28;20248;-47
2023/04/03 15:21:15;;;;;;;2.37;2.27;;;7.90;99.90;;;;;;5003865;28;20287;-47
2023/04/03 15:23:42;;;;;;;1.90;1.80;;;7.90;99.90;;;;;;5011738;28;20207;-47
2023/04/03 15:26:09;;;;;;;2.77;2.33;;;7.90;99.90;;;;;;5011512;28;20208;-47
2023/04/03 15:28:39;;;;;;;2.83;2.30;;;7.90;99.90;;;;;;5005798;28;20253;-48
2023/04/03 15:31:06;;;;;;;1.83;1.77;;;7.80;99.90;;;;;;5009296;28;20559;-47
2023/04/03 15:33:34;;;;;;;3.03;2.10;;;7.70;99.90;;;;;;5011631;28;20205;-48
2023/04/03 15:36:02;;;;;;;2.47;2.37;;;7.70;99.90;;;;;;5007673;28;20254;-48
2023/04/03 15:38:29;;;;;;;2.50;2.40;;;7.70;99.90;;;;;;5010093;28;20272;-48
2023/04/03 15:40:56;;;;;;;2.37;2.17;;;7.70;99.90;;;;;;5009460;28;20276;-47
2023/04/03 15:43:23;;;;;;;2.57;2.37;;;7.70;99.90;;;;;;5010844;28;20212;-47
2023/04/03 15:45:51;;;;;;;2.07;1.87;;;7.60;99.90;;;;;;5006665;28;20582;-47
2023/04/03 15:48:19;;;;;;;2.80;2.30;;;7.60;99.90;;;;;;5008753;28;20679;-47
2023/04/03 15:50:46;;;;;;;1.97;1.87;;;7.60;99.90;;;;;;5009359;28;20717;-48
2023/04/03 15:53:14;;;;;;;1.87;1.80;;;7.60;99.90;;;;;;5010468;28;20264;-49
2023/04/03 15:55:41;;;;;;;2.17;2.07;;;7.60;99.90;;;;;;5009813;28;20203;-47
2023/04/03 15:58:09;;;;;;;3.63;2.20;;;7.50;99.90;;;;;;5010313;28;20209;-47
2023/04/03 16:00:37;;;;;;;4.53;4.13;;;7.50;99.90;;;;;;5006909;28;20227;-48
2023/04/03 16:03:09;;;;;;;2.90;2.63;;;7.50;99.90;;;;;;5010431;28;20620;-48
2023/04/03 16:05:38;;;;;;;2.00;2.00;;;7.40;99.90;;;;;;5010516;28;20354;-48
2023/04/03 16:08:07;;;;;;;3.50;3.20;;;7.20;99.90;;;;;;4991283;28;20205;-47
2023/04/03 16:10:35;;;;;;;4.07;2.23;;;7.30;99.90;;;;;;5006755;28;20714;-47
2023/04/03 16:13:03;;;;;;;2.57;2.00;;;7.30;99.90;;;;;;5009261;28;20212;-47
2023/04/03 16:15:31;;;;;;;2.53;1.97;;;7.30;99.90;;;;;;5002389;28;20204;-47
2023/04/03 16:17:59;;;;;;;2.10;2.00;;;7.30;99.90;;;;;;5007690;28;20292;-48
2023/04/03 16:20:27;;;;;;;1.80;1.80;;;7.20;99.90;;;;;;5010455;28;20230;-50
2023/04/03 16:22:54;;;;;;;1.37;1.37;;;7.20;99.90;;;;;;5013182;28;20256;-50
2023/04/03 16:25:21;;;;;;;3.90;1.93;;;7.10;99.90;;;;;;5017452;28;20205;-47
2023/04/03 16:27:50;;;;;;;2.20;1.90;;;7.20;99.90;;;;;;5012930;28;20266;-47
2023/04/03 16:30:17;;;;;;;1.70;1.60;;;7.10;99.90;;;;;;5006585;28;20224;-47
2023/04/03 16:32:44;;;;;;;1.83;1.80;;;7.00;99.90;;;;;;5008725;28;20201;-48
2023/04/03 16:35:11;;;;;;;1.50;1.50;;;6.90;99.90;;;;;;5011969;28;20267;-47
2023/04/03 16:37:39;;;;;;;2.83;2.07;;;6.80;99.90;;;;;;5015174;28;20263;-48
2023/04/03 16:40:11;;;;;;;1.53;1.43;;;6.80;99.90;;;;;;5015903;28;20311;-47
2023/04/03 16:42:39;;;;;;;2.53;2.43;;;6.80;99.90;;;;;;4971478;28;1125922;-47
2023/04/03 16:45:11;;;;;;;1.87;1.83;;;6.80;99.90;;;;;;5014708;28;20205;-47
2023/04/03 16:47:38;;;;;;;1.13;1.13;;;6.70;99.90;;;;;;5010162;28;20272;-47
2023/04/03 16:50:06;;;;;;;3.17;2.23;;;6.70;99.90;;;;;;5011446;28;20217;-48
2023/04/03 16:52:33;;;;;;;1.60;1.50;;;6.60;99.90;;;;;;5016217;28;20205;-48
2023/04/03 16:55:00;;;;;;;2.50;2.30;;;6.50;99.90;;;;;;5014357;28;20668;-48
2023/04/03 16:57:27;;;;;;;2.00;1.90;;;6.50;99.90;;;;;;5014330;28;20199;-48
2023/04/03 16:59:54;;;;;;;2.60;2.50;;;6.50;99.90;;;;;;5015832;28;20226;-48
2023/04/03 17:02:25;;;;;;;4.40;1.80;;;6.50;99.90;;;;;;5013470;28;20244;-48
2023/04/03 17:04:52;;;;;;;2.63;2.10;;;6.40;99.90;;;;;;5011416;28;20199;-48
2023/04/03 17:07:19;;;;;;;3.17;2.40;;;6.30;99.90;;;;;;5014420;28;20220;-48
2023/04/03 17:09:47;;;;;;;6.27;3.47;;;6.30;99.90;;;;;;5013179;28;20773;-47
2023/04/03 17:12:14;;;;;;;2.77;2.53;;;6.30;99.90;;;;;;5013830;28;20264;-48
2023/04/03 17:14:41;;;;;;;1.87;1.80;;;6.30;99.90;;;;;;5013314;28;20232;-47
2023/04/03 17:17:09;;;;;;;3.20;2.90;;;6.40;99.90;;;;;;4994874;28;20202;-48
2023/04/03 17:19:38;;;;;;;2.73;2.53;;;6.40;99.90;;;;;;5000379;28;20229;-48
2023/04/03 17:22:05;;;;;;;3.60;3.20;;;6.40;99.90;;;;;;5013538;28;20210;-47
2023/04/03 17:24:33;;;;;;;4.53;4.13;;;6.30;99.90;;;;;;5014631;28;20255;-48
2023/04/03 17:27:00;;;;;;;2.70;2.53;;;6.30;99.90;;;;;;5007556;28;20735;-48
2023/04/03 17:29:27;;;;;;;3.67;3.47;;;6.30;99.90;;;;;;5009955;28;20231;-47
2023/04/03 17:31:54;;;;;;;4.40;2.30;;;6.30;99.90;;;;;;5013551;28;20264;-48
2023/04/03 17:34:21;;;;;;;2.20;2.10;;;6.30;99.90;;;;;;5013957;28;20259;-47
2023/04/03 17:36:50;;;;;;;4.60;2.07;;;6.10;99.90;;;;;;5016205;28;20204;-47
2023/04/03 17:39:17;;;;;;;3.20;3.00;;;6.00;99.90;;;;;;5004368;28;20280;-47
2023/04/03 17:41:44;;;;;;;6.60;3.00;;;6.00;99.90;;;;;;5004437;28;20201;-47
2023/04/03 17:44:11;;;;;;;3.53;2.80;;;6.00;99.90;;;;;;5013782;28;20216;-47
2023/04/03 17:46:38;;;;;;;3.67;2.70;;;6.10;99.90;;;;;;5011611;28;20562;-48
2023/04/03 17:49:05;;;;;;;2.50;2.40;;;6.10;99.90;;;;;;5011734;28;20567;-48
2023/04/03 17:51:33;;;;;;;2.03;1.63;;;6.00;99.90;;;;;;5010501;28;20198;-48
2023/04/03 17:54:02;;;;;;;3.27;2.00;;;6.00;99.90;;;;;;5012680;28;20549;-48
2023/04/03 17:56:29;;;;;;;5.27;3.13;;;6.00;99.90;;;;;;5011652;28;20262;-48
2023/04/03 17:58:57;;;;;;;2.83;2.13;;;6.00;99.90;;;;;;5011929;28;20693;-47
2023/04/03 18:01:26;;;;;;;4.63;3.23;;;6.00;99.90;;;;;;5012677;28;20206;-48
2023/04/03 18:03:56;;;;;;;3.63;2.50;;;6.00;99.90;;;;;;5010821;28;20248;-47
2023/04/03 18:06:26;;;;;;;2.50;1.80;;;5.90;99.90;;;;;;5007212;28;20288;-46
2023/04/03 18:08:55;;;;;;;2.63;2.43;;;5.90;99.90;;;;;;5009783;28;20203;-47
2023/04/03 18:11:28;;;;;;;4.20;3.50;;;5.80;99.90;;;;;;5011949;28;20299;-48
2023/04/03 18:13:57;;;;;;;2.70;2.50;;;5.70;99.90;;;;;;5012503;28;20200;-48
2023/04/03 18:16:24;;;;;;;3.23;3.00;;;5.70;99.90;;;;;;5014162;28;20209;-47
2023/04/03 18:18:51;;;;;;;3.63;3.27;;;5.70;99.90;;;;;;5009099;28;20232;-47
2023/04/03 18:21:18;;;;;;;1.97;1.87;;;5.70;99.90;;;;;;5012340;28;20209;-46
2023/04/03 18:23:50;;;;;;;2.37;2.27;;;5.70;99.90;;;;;;5012440;28;20202;-47
2023/04/03 18:26:17;;;;;;;3.20;2.03;;;5.70;99.90;;;;;;5011862;28;20201;-47
2023/04/03 18:28:50;;;;;;;2.83;2.13;;;5.60;99.90;;;;;;5005305;28;20296;-46
2023/04/03 18:31:19;;;;;;;3.53;2.20;;;5.60;99.90;;;;;;5011399;28;20209;-47
2023/04/03 18:33:47;;;;;;;3.47;2.27;;;5.60;99.90;;;;;;5009381;28;20577;-47
2023/04/03 18:36:13;;;;;;;2.13;2.03;;;5.60;99.90;;;;;;5010987;28;20702;-48
2023/04/03 18:38:40;;;;;;;3.23;2.93;;;5.60;99.90;;;;;;5009008;28;20670;-47
2023/04/03 18:41:09;;;;;;;2.97;2.63;;;5.50;99.90;;;;;;5008278;28;20260;-46
2023/04/03 18:43:36;;;;;;;2.93;2.60;;;5.50;99.90;;;;;;5000159;28;20687;-46
2023/04/03 18:46:06;;;;;;;2.00;1.90;;;5.50;99.90;;;;;;4999992;28;20205;-47
2023/04/03 18:48:33;;;;;;;3.87;2.47;;;5.50;99.90;;;;;;5004061;28;20282;-47
2023/04/03 18:51:01;;;;;;;2.63;2.47;;;5.40;99.90;;;;;;5012240;28;20654;-47
2023/04/03 18:53:28;;;;;;;5.03;3.33;;;5.40;99.90;;;;;;5007849;28;20205;-47
2023/04/03 18:55:55;;;;;;;2.60;2.40;;;5.40;99.90;;;;;;5002637;28;20250;-47
2023/04/03 18:58:22;;;;;;;4.07;3.23;;;5.30;99.90;;;;;;5012631;28;20201;-47
2023/04/03 19:00:49;;;;;;;2.53;2.17;;;5.40;99.90;;;;;;5012530;28;20226;-47
2023/04/03 19:03:17;;;;;;;5.10;2.70;;;5.30;99.90;;;;;;5005647;28;20217;-46
2023/04/03 19:05:45;;;;;;;2.67;2.57;;;5.30;99.90;;;;;;5015447;28;20209;-47
2023/04/03 19:08:12;;;;;;;2.47;2.33;;;5.30;99.90;;;;;;5011887;28;20667;-48
2023/04/03 19:10:39;;;;;;;2.57;2.33;;;5.30;99.90;;;;;;5009743;28;20279;-46
2023/04/03 19:13:06;;;;;;;2.37;2.27;;;5.30;99.90;;;;;;5008500;28;20208;-47
2023/04/03 19:15:33;;;;;;;3.83;3.20;;;5.30;99.90;;;;;;5008425;28;20215;-47
2023/04/03 19:18:00;;;;;;;2.30;2.10;;;5.30;99.90;;;;;;5011391;28;20204;-47
2023/04/03 19:20:29;;;;;;;3.40;3.13;;;5.30;99.90;;;;;;5011346;28;20227;-47
2023/04/03 19:22:55;;;;;;;4.93;2.10;;;5.20;99.90;;;;;;5008420;28;20679;-47
2023/04/03 19:25:22;;;;;;;2.67;2.47;;;5.30;99.90;;;;;;5010562;28;20205;-47
2023/04/03 19:27:50;;;;;;;2.20;2.10;;;5.20;99.90;;;;;;5009294;28;20207;-47
2023/04/03 19:30:17;;;;;;;2.23;1.93;;;5.20;99.90;;;;;;5000871;28;20221;-46
2023/04/03 19:32:44;;;;;;;5.33;2.77;;;5.20;99.90;;;;;;5008835;28;20218;-46
2023/04/03 19:35:11;;;;;;;1.67;1.57;;;5.30;99.90;;;;;;5005891;28;20635;-46
2023/04/03 19:37:41;;;;;;;9.77;8.77;;;5.20;99.90;;;;;;5009778;28;20204;-47
2023/04/03 19:40:10;;;;;;;6.57;3.20;;;5.20;99.90;;;;;;5004355;28;20225;-47
2023/04/03 19:42:41;;;;;;;3.47;3.23;;;5.30;99.90;;;;;;5001107;28;20213;-46
2023/04/03 19:45:10;;;;;;;3.03;1.67;;;5.20;99.90;;;;;;5009066;28;20240;-45
2023/04/03 19:47:37;;;;;;;2.43;2.23;;;5.20;99.90;;;;;;5007885;28;20204;-47
2023/04/03 19:50:05;;;;;;;2.63;1.93;;;5.10;99.90;;;;;;5004486;28;20270;-47
2023/04/03 19:52:32;;;;;;;2.27;2.07;;;4.90;99.90;;;;;;5006287;28;20248;-46
2023/04/03 19:55:01;;;;;;;2.87;2.00;;;4.90;99.90;;;;;;5006594;28;20636;-46
2023/04/03 19:57:28;;;;;;;3.00;2.80;;;4.90;99.90;;;;;;4996829;28;20967;-46
2023/04/03 19:59:55;;;;;;;3.47;2.43;;;4.80;99.90;;;;;;5004505;28;20282;-47
2023/04/03 20:02:22;;;;;;;1.77;1.67;;;4.80;99.90;;;;;;5001226;28;20327;-46
2023/04/03 20:04:49;;;;;;;2.60;2.40;;;4.80;99.90;;;;;;4999237;28;20201;-46
2023/04/03 20:07:16;;;;;;;5.67;5.17;;;4.80;99.90;;;;;;5002943;28;20209;-47
2023/04/03 20:09:43;;;;;;;4.33;2.87;;;4.70;99.90;;;;;;4999730;28;20218;-46
2023/04/03 20:12:12;;;;;;;2.90;2.60;;;4.70;99.90;;;;;;5001660;28;20210;-47
2023/04/03 20:14:39;;;;;;;2.57;2.47;;;4.60;99.90;;;;;;5004400;28;20266;-48
2023/04/03 20:17:07;;;;;;;3.50;1.50;;;4.60;99.90;;;;;;5010259;28;20197;-46
2023/04/03 20:19:34;;;;;;;8.53;5.53;;;4.60;99.90;;;;;;5005673;28;20231;-47
2023/04/03 20:22:01;;;;;;;2.53;2.33;;;4.60;99.90;;;;;;5009369;28;20263;-47
2023/04/03 20:24:28;;;;;;;2.13;1.57;;;4.50;99.90;;;;;;5004719;28;20213;-46
2023/04/03 20:26:56;;;;;;;3.23;1.63;;;4.60;99.90;;;;;;5010307;28;20742;-47
2023/04/03 20:29:25;;;;;;;3.13;1.60;;;4.60;99.90;;;;;;5007589;28;20227;-46
2023/04/03 20:31:53;;;;;;;2.43;2.27;;;4.50;99.90;;;;;;5010028;28;20318;-47
2023/04/03 20:34:21;;;;;;;1.53;1.43;;;4.50;99.90;;;;;;5010823;28;20211;-46
2023/04/03 20:36:48;;;;;;;2.27;1.43;;;4.50;99.90;;;;;;5008568;28;20198;-47
2023/04/03 20:39:15;;;;;;;3.17;1.67;;;4.50;99.90;;;;;;5010185;28;20267;-46
2023/04/03 20:41:42;;;;;;;1.53;1.13;;;4.50;99.90;;;;;;5004610;28;20220;-46
2023/04/03 20:44:09;;;;;;;2.67;1.50;;;4.40;99.90;;;;;;5006020;28;20218;-46
2023/04/03 20:46:37;;;;;;;1.80;1.50;;;4.30;99.90;;;;;;5006550;28;20644;-46
2023/04/03 20:49:05;;;;;;;1.13;1.10;;;4.30;99.90;;;;;;5006964;28;20267;-47
2023/04/03 20:51:32;;;;;;;3.07;2.63;;;4.30;99.90;;;;;;5009134;28;20205;-46
2023/04/03 20:53:59;;;;;;;1.13;1.13;;;4.20;99.90;;;;;;5008810;28;20210;-47
2023/04/03 20:56:31;;;;;;;1.37;1.00;;;4.20;99.90;;;;;;5009986;28;20201;-46
2023/04/03 20:59:00;;;;;;;1.47;1.07;;;4.20;99.90;;;;;;5005253;28;20236;-46
2023/04/03 21:01:27;;;;;;;1.40;1.10;;;4.20;99.90;;;;;;5010774;28;20224;-45
2023/04/03 21:04:02;;;;;;;3.23;1.70;;;4.20;99.90;;;;;;5012003;28;20753;-47
2023/04/03 21:07:06;;;;;;;1.33;1.17;;;4.20;99.90;;;;;;5006601;28;20828;-46
2023/04/03 21:10:13;;;;;;;2.90;1.60;;;4.10;99.90;;;;;;5014295;28;20273;-47
2023/04/03 21:13:17;;;;;;;1.50;1.40;;;4.10;99.90;;;;;;5011616;28;20213;-46
2023/04/03 21:15:47;;;;;;;2.17;0.90;;;3.90;99.90;;;;;;5010075;28;20206;-46
2023/04/03 21:18:28;;;;;;;3.07;1.50;;;4.00;99.90;;;;;;5010550;28;20209;-46
2023/04/03 21:20:55;;;;;;;2.07;1.97;;;3.90;99.90;;;;;;5013170;28;20228;-46
2023/04/03 21:23:23;;;;;;;2.30;2.10;;;3.80;99.90;;;;;;5011935;28;20279;-47
2023/04/03 21:25:50;;;;;;;2.23;1.57;;;3.80;99.90;;;;;;5011922;28;20804;-47
2023/04/03 21:28:17;;;;;;;1.43;1.30;;;3.80;99.90;;;;;;5013035;28;20258;-46
2023/04/03 21:30:44;;;;;;;1.37;1.20;;;3.80;99.90;;;;;;5011684;28;20231;-46
2023/04/03 21:33:11;;;;;;;1.50;1.40;;;3.70;99.90;;;;;;5012653;28;20740;-47
2023/04/03 21:35:41;;;;;;;1.53;1.30;;;3.70;99.90;;;;;;5013078;28;20216;-46
2023/04/03 21:38:08;;;;;;;1.37;1.27;;;3.70;99.90;;;;;;5012200;28;20625;-47
2023/04/03 21:40:34;;;;;;;1.53;1.37;;;3.60;99.90;;;;;;5013587;28;20225;-46
2023/04/03 21:43:03;;;;;;;2.17;2.07;;;3.60;99.90;;;;;;5006646;28;20272;-46
2023/04/03 21:45:30;;;;;;;3.07;1.93;;;3.60;99.90;;;;;;5012404;28;20656;-46
2023/04/03 21:47:58;;;;;;;1.70;1.60;;;3.60;99.90;;;;;;5000984;28;20632;-46
2023/04/03 21:50:25;;;;;;;1.30;1.20;;;3.50;99.90;;;;;;5013990;28;20243;-46
2023/04/03 21:52:55;;;;;;;1.97;1.73;;;3.40;99.90;;;;;;5008112;28;20632;-46
2023/04/03 21:55:22;;;;;;;1.73;1.63;;;3.40;99.90;;;;;;5008631;28;20236;-46
2023/04/03 21:57:52;;;;;;;1.93;1.50;;;3.50;99.90;;;;;;5008248;28;20209;-46
2023/04/03 22:00:21;;;;;;;1.70;1.60;;;3.50;99.90;;;;;;5009701;28;20232;-45
2023/04/03 22:02:48;;;;;;;2.83;2.43;;;3.40;99.90;;;;;;5013540;28;20306;-46
2023/04/03 22:05:15;;;;;;;2.47;1.77;;;3.40;99.90;;;;;;5012069;28;20236;-47
2023/04/03 22:07:46;;;;;;;5.13;1.50;;;3.30;99.90;;;;;;5006136;28;20261;-46
2023/04/03 22:10:15;;;;;;;4.33;1.70;;;3.30;99.90;;;;;;5003273;28;20230;-45
2023/04/03 22:12:42;;;;;;;1.33;1.23;;;3.30;99.90;;;;;;5012175;28;20208;-46
2023/04/03 22:15:10;;;;;;;1.47;1.20;;;3.30;99.90;;;;;;5011168;28;20616;-45
2023/04/03 22:17:38;;;;;;;1.83;1.40;;;3.30;99.90;;;;;;5010972;28;20206;-46
2023/04/03 22:20:09;;;;;;;1.57;1.40;;;3.30;99.90;;;;;;5011755;28;20235;-46
2023/04/03 22:22:36;;;;;;;1.77;1.23;;;3.30;99.90;;;;;;5010850;28;20209;-46
2023/04/03 22:25:04;;;;;;;2.27;1.87;;;3.30;99.90;;;;;;5013410;28;20562;-46
2023/04/03 22:27:33;;;;;;;2.97;2.57;;;3.30;99.90;;;;;;5010330;28;20611;-46
2023/04/03 22:30:00;;;;;;;3.37;1.47;;;3.20;99.90;;;;;;5002699;28;20229;-46
2023/04/03 22:32:27;;;;;;;1.10;1.10;;;3.30;99.90;;;;;;5012188;28;20246;-47
2023/04/03 22:34:54;;;;;;;3.00;2.70;;;3.30;99.90;;;;;;5011990;28;20204;-47
2023/04/03 22:37:21;;;;;;;2.80;1.87;;;3.20;99.90;;;;;;5011269;28;20215;-47
2023/04/03 22:39:48;;;;;;;1.37;1.10;;;3.10;99.90;;;;;;5003421;28;20767;-47
2023/04/03 22:42:15;;;;;;;2.40;2.20;;;3.10;99.90;;;;;;5012826;28;20224;-46
2023/04/03 22:44:43;;;;;;;2.33;1.40;;;3.10;99.90;;;;;;5013078;28;20212;-46
2023/04/03 22:47:11;;;;;;;1.47;1.13;;;3.00;99.90;;;;;;5011456;28;20204;-46
2023/04/03 22:49:38;;;;;;;1.60;1.50;;;3.10;99.90;;;;;;5011477;28;20220;-46
2023/04/03 22:52:05;;;;;;;2.30;1.47;;;3.10;99.90;;;;;;5005929;28;20202;-47
2023/04/03 22:54:32;;;;;;;2.47;1.13;;;3.10;99.90;;;;;;5012805;28;20208;-45
2023/04/03 22:56:59;;;;;;;1.77;1.73;;;3.10;99.90;;;;;;5010521;28;20208;-46
2023/04/03 22:59:26;;;;;;;1.40;1.30;;;3.10;99.90;;;;;;5010736;28;20255;-46
2023/04/03 23:01:54;;;;;;;1.90;1.67;;;3.10;99.90;;;;;;5011484;28;20283;-46
2023/04/03 23:04:21;;;;;;;2.67;1.30;;;3.00;99.90;;;;;;5011452;28;20621;-47
2023/04/03 23:06:48;;;;;;;1.40;1.40;;;3.00;99.90;;;;;;5011704;28;20648;-46
2023/04/03 23:09:15;;;;;;;1.20;1.00;;;2.90;99.90;;;;;;5007996;28;20646;-46
2023/04/03 23:11:42;;;;;;;1.30;1.20;;;2.90;99.90;;;;;;5012412;28;20199;-46
2023/04/03 23:14:09;;;;;;;2.90;1.27;;;2.90;99.90;;;;;;5011069;28;20209;-47
2023/04/03 23:16:36;;;;;;;4.23;1.40;;;2.90;99.90;;;;;;5012225;28;20255;-47
2023/04/03 23:19:06;;;;;;;4.73;1.20;;;2.90;99.90;;;;;;5010673;28;20224;-46
2023/04/03 23:21:33;;;;;;;5.50;1.77;;;2.90;99.90;;;;;;5004535;28;20221;-46
2023/04/03 23:24:00;;;;;;;1.53;1.40;;;3.00;99.90;;;;;;5011229;28;20205;-46
2023/04/03 23:26:27;;;;;;;2.20;1.50;;;2.90;99.90;;;;;;5011251;28;20787;-46
2023/04/03 23:28:54;;;;;;;0.83;0.83;;;2.90;99.90;;;;;;5010283;28;20205;-46
2023/04/03 23:31:21;;;;;;;4.20;1.77;;;2.90;99.90;;;;;;5011175;28;20201;-46
2023/04/03 23:33:48;;;;;;;3.83;1.13;;;2.80;99.90;;;;;;5012265;28;20240;-46
2023/04/03 23:36:16;;;;;;;2.03;1.30;;;2.80;99.90;;;;;;5008964;28;20307;-46
2023/04/03 23:38:43;;;;;;;1.60;1.50;;;2.90;99.90;;;;;;5002953;28;20246;-46
2023/04/03 23:41:11;;;;;;;4.70;1.20;;;2.80;99.90;;;;;;5011716;28;20274;-47
2023/04/03 23:43:40;;;;;;;1.30;1.20;;;2.70;99.90;;;;;;5010933;28;20225;-46
2023/04/03 23:46:07;;;;;;;2.00;1.60;;;2.70;99.90;;;;;;5007274;28;20211;-46
2023/04/03 23:48:34;;;;;;;1.37;1.27;;;2.70;99.90;;;;;;5010307;28;20582;-46
2023/04/03 23:51:01;;;;;;;2.30;1.67;;;2.70;99.90;;;;;;5008111;28;20221;-46
2023/04/03 23:53:29;;;;;;;2.47;1.43;;;2.60;99.90;;;;;;5012261;28;20212;-45
2023/04/03 23:55:56;;;;;;;4.77;3.80;;;2.50;99.90;;;;;;5010638;28;20201;-46
2023/04/03 23:58:23;;;;;;;8.70;5.83;;;2.60;99.90;;;;;;5010374;28;20250;-46
